Time;durP1;ratioP1;P1;durP2;ratioP2;P2;SDS_P1;SDS_P2;PMS_P1;PMS_P2;Temp;Humidity;BMP_temperature;BMP_pressure;BME280_temperature;BME280_humidity;BME280_pressure;Samples;Min_cycle;Max_cycle;Signal;HPM_P1;HPM_P2
2022/07/01 00:00:53;;;;;;;1.95;1.00;;;;;;;;;;5035177;28;20041;-71
2022/07/01 00:03:19;;;;;;;4.15;1.10;;;;;;;;;;5034616;28;20067;-71
2022/07/01 00:05:45;;;;;;;1.65;0.93;;;;;;;;;;5034768;28;20037;-71
2022/07/01 00:08:11;;;;;;;2.15;1.00;;;;;;;;;;5016621;28;20045;-70
2022/07/01 00:10:37;;;;;;;5.68;1.10;;;;;;;;;;5016452;28;20046;-77
2022/07/01 00:13:06;;;;;;;1.70;1.00;;;;;;;;;;4999973;28;20049;-70
2022/07/01 00:15:32;;;;;;;2.58;1.02;;;;;;;;;;5032817;28;20096;-71
2022/07/01 00:17:58;;;;;;;2.15;1.15;;;;;;;;;;5014110;28;20042;-71
2022/07/01 00:20:24;;;;;;;2.40;1.10;;;;;;;;;;5016134;28;20041;-71
2022/07/01 00:22:50;;;;;;;2.92;1.10;;;;;;;;;;5000264;28;20045;-72
2022/07/01 00:25:17;;;;;;;1.67;0.88;;;;;;;;;;5000105;28;20052;-71
2022/07/01 00:27:43;;;;;;;2.95;1.27;;;;;;;;;;5032522;28;20062;-77
2022/07/01 00:30:10;;;;;;;1.95;1.00;;;;;;;;;;4999879;28;20047;-77
2022/07/01 00:32:36;;;;;;;3.50;1.05;;;;;;;;;;5032473;28;20033;-76
2022/07/01 00:35:02;;;;;;;2.22;1.10;;;;;;;;;;5032934;28;20076;-77
2022/07/01 00:37:28;;;;;;;2.72;0.98;;;;;;;;;;5033589;28;20045;-76
2022/07/01 00:39:54;;;;;;;2.83;1.10;;;;;;;;;;4999918;28;20053;-70
2022/07/01 00:42:21;;;;;;;2.55;1.10;;;;;;;;;;5015922;28;20120;-71
2022/07/01 00:44:47;;;;;;;2.25;1.10;;;;;;;;;;5016053;28;20041;-76
2022/07/01 00:47:14;;;;;;;1.98;1.08;;;;;;;;;;5016426;28;20057;-76
2022/07/01 00:49:40;;;;;;;2.70;1.30;;;;;;;;;;5015565;28;20044;-77
2022/07/01 00:52:08;;;;;;;2.80;1.00;;;;;;;;;;5016020;28;20037;-71
2022/07/01 00:54:36;;;;;;;3.47;1.20;;;;;;;;;;5015477;28;20045;-71
2022/07/01 00:57:11;;;;;;;2.63;1.30;;;;;;;;;;5015975;28;20041;-71
2022/07/01 00:59:39;;;;;;;3.40;1.20;;;;;;;;;;5015337;28;20099;-77
2022/07/01 01:02:06;;;;;;;3.47;1.30;;;;;;;;;;5015948;28;20033;-77
2022/07/01 01:04:33;;;;;;;3.13;1.67;;;;;;;;;;5015670;28;20042;-71
2022/07/01 01:07:00;;;;;;;3.33;1.30;;;;;;;;;;5015648;28;20044;-77
2022/07/01 01:09:27;;;;;;;3.25;1.50;;;;;;;;;;5015427;28;20128;-77
2022/07/01 01:11:53;;;;;;;2.80;1.45;;;;;;;;;;5017631;28;20084;-77
2022/07/01 01:14:19;;;;;;;3.88;1.58;;;;;;;;;;5015188;28;20116;-77
2022/07/01 01:16:45;;;;;;;5.28;1.90;;;;;;;;;;4998971;28;20042;-77
2022/07/01 01:19:11;;;;;;;4.22;1.80;;;;;;;;;;5015585;28;20056;-77
2022/07/01 01:21:37;;;;;;;3.78;2.38;;;;;;;;;;5014898;28;20041;-77
2022/07/01 01:24:03;;;;;;;3.13;1.92;;;;;;;;;;5014809;28;20042;-77
2022/07/01 01:26:30;;;;;;;4.13;2.10;;;;;;;;;;5015214;28;20056;-77
2022/07/01 01:28:56;;;;;;;3.33;2.05;;;;;;;;;;5031521;28;20098;-77
2022/07/01 01:31:29;;;;;;;4.40;2.30;;;;;;;;;;4999125;28;20068;-77
2022/07/01 01:33:56;;;;;;;5.63;2.28;;;;;;;;;;5031395;28;20045;-71
2022/07/01 01:36:22;;;;;;;4.80;2.30;;;;;;;;;;5015072;28;20072;-77
2022/07/01 01:38:48;;;;;;;3.47;2.28;;;;;;;;;;5015250;28;20502;-77
2022/07/01 01:41:14;;;;;;;7.15;3.40;;;;;;;;;;5015364;28;20418;-77
2022/07/01 01:43:40;;;;;;;3.97;2.70;;;;;;;;;;5014623;28;20073;-77
2022/07/01 01:46:06;;;;;;;4.25;2.60;;;;;;;;;;5014943;28;20049;-77
2022/07/01 01:48:32;;;;;;;6.75;2.88;;;;;;;;;;5014707;28;20074;-77
2022/07/01 01:50:58;;;;;;;4.78;2.97;;;;;;;;;;5014829;28;20045;-77
2022/07/01 01:53:24;;;;;;;5.35;3.00;;;;;;;;;;5015140;28;20040;-78
2022/07/01 01:55:51;;;;;;;5.53;3.40;;;;;;;;;;5032987;28;20497;-71
2022/07/01 01:58:17;;;;;;;4.50;3.60;;;;;;;;;;5015092;28;20041;-77
2022/07/01 02:00:43;;;;;;;6.25;3.53;;;;;;;;;;5014500;28;20049;-76
2022/07/01 02:03:09;;;;;;;6.32;3.45;;;;;;;;;;4997635;28;20083;-77
2022/07/01 02:05:36;;;;;;;5.18;3.38;;;;;;;;;;5030969;28;20045;-77
2022/07/01 02:08:02;;;;;;;6.03;3.33;;;;;;;;;;5020201;28;20091;-77
2022/07/01 02:10:28;;;;;;;7.07;3.63;;;;;;;;;;5013710;28;20064;-77
2022/07/01 02:12:54;;;;;;;4.13;2.83;;;;;;;;;;5019197;28;20072;-77
2022/07/01 02:15:20;;;;;;;7.63;3.40;;;;;;;;;;5029105;28;20393;-77
2022/07/01 02:17:47;;;;;;;6.57;3.08;;;;;;;;;;5032618;28;20394;-77
2022/07/01 02:20:16;;;;;;;5.72;3.50;;;;;;;;;;5001645;28;20081;-77
2022/07/01 02:22:42;;;;;;;6.60;3.17;;;;;;;;;;5032262;28;20033;-77
2022/07/01 02:25:09;;;;;;;4.38;3.08;;;;;;;;;;5015073;28;20383;-77
2022/07/01 02:27:36;;;;;;;7.28;3.20;;;;;;;;;;5031126;28;20486;-70
2022/07/01 02:30:02;;;;;;;4.93;3.30;;;;;;;;;;5030531;28;20064;-70
2022/07/01 02:32:29;;;;;;;5.35;3.05;;;;;;;;;;5014366;28;20041;-77
2022/07/01 02:34:55;;;;;;;4.20;3.17;;;;;;;;;;5014267;28;20048;-71
2022/07/01 02:37:21;;;;;;;4.90;3.13;;;;;;;;;;5032127;28;20096;-70
2022/07/01 02:39:47;;;;;;;4.93;3.35;;;;;;;;;;5013989;28;20059;-70
2022/07/01 02:42:26;;;;;;;5.88;3.20;;;;;;;;;;5014090;28;20095;-70
2022/07/01 02:44:53;;;;;;;6.00;3.78;;;;;;;;;;5030837;28;20045;-77
2022/07/01 02:47:20;;;;;;;6.88;4.30;;;;;;;;;;4997854;28;20045;-77
2022/07/01 02:49:46;;;;;;;7.07;4.90;;;;;;;;;;5031512;28;20068;-77
2022/07/01 02:52:12;;;;;;;8.77;5.07;;;;;;;;;;5014100;28;20033;-78
2022/07/01 02:54:38;;;;;;;7.40;5.22;;;;;;;;;;5013778;28;20116;-77
2022/07/01 02:57:04;;;;;;;8.20;5.72;;;;;;;;;;5031864;28;20490;-77
2022/07/01 02:59:30;;;;;;;8.63;6.13;;;;;;;;;;5013832;28;20041;-77
2022/07/01 03:01:56;;;;;;;8.45;6.30;;;;;;;;;;4997212;28;20076;-70
2022/07/01 03:04:22;;;;;;;11.75;7.00;;;;;;;;;;4997668;28;20047;-69
2022/07/01 03:06:48;;;;;;;10.45;7.13;;;;;;;;;;5013751;28;20049;-70
2022/07/01 03:09:14;;;;;;;12.80;7.97;;;;;;;;;;5031939;28;20494;-70
2022/07/01 03:11:40;;;;;;;14.20;8.77;;;;;;;;;;5013502;28;20087;-70
2022/07/01 03:14:06;;;;;;;15.52;8.90;;;;;;;;;;5013903;28;20045;-70
2022/07/01 03:16:32;;;;;;;15.93;10.05;;;;;;;;;;5013609;28;20037;-70
2022/07/01 03:18:58;;;;;;;14.52;9.60;;;;;;;;;;5013657;28;20095;-71
2022/07/01 03:21:24;;;;;;;16.80;10.50;;;;;;;;;;5014233;28;20500;-76
2022/07/01 03:23:51;;;;;;;22.95;10.90;;;;;;;;;;5013566;28;20040;-71
2022/07/01 03:26:17;;;;;;;19.65;10.90;;;;;;;;;;5013739;28;20131;-69
2022/07/01 03:28:43;;;;;;;21.13;12.48;;;;;;;;;;5013476;28;20053;-70
2022/07/01 03:31:09;;;;;;;24.95;13.85;;;;;;;;;;5013857;28;20037;-70
2022/07/01 03:33:35;;;;;;;23.33;13.45;;;;;;;;;;5014204;28;20367;-70
2022/07/01 03:36:01;;;;;;;22.90;14.43;;;;;;;;;;4996874;28;20041;-69
2022/07/01 03:38:27;;;;;;;24.55;15.57;;;;;;;;;;5014065;28;20037;-70
2022/07/01 03:40:53;;;;;;;27.20;15.25;;;;;;;;;;5013559;28;20457;-70
2022/07/01 03:43:19;;;;;;;26.67;15.30;;;;;;;;;;5013694;28;20041;-70
2022/07/01 03:45:45;;;;;;;29.15;15.77;;;;;;;;;;5013386;28;20044;-70
2022/07/01 03:48:12;;;;;;;27.67;15.80;;;;;;;;;;5016570;28;20406;-77
2022/07/01 03:50:38;;;;;;;27.80;16.42;;;;;;;;;;5016981;28;20038;-76
2022/07/01 03:55:49;;;;;;;27.55;17.42;;;;;;;;;;5033036;28;20061;-76
2022/07/01 03:58:15;;;;;;;30.67;17.13;;;;;;;;;;5033506;28;20029;-76
2022/07/01 04:00:42;;;;;;;27.40;16.42;;;;;;;;;;5016269;28;20042;-76
2022/07/01 04:03:08;;;;;;;30.52;17.90;;;;;;;;;;5029624;28;20548;-76
2022/07/01 04:05:35;;;;;;;32.55;18.10;;;;;;;;;;5033388;28;20478;-76
2022/07/01 04:08:02;;;;;;;33.00;18.40;;;;;;;;;;4999912;28;20049;-76
2022/07/01 04:10:30;;;;;;;30.83;18.15;;;;;;;;;;5018474;28;20041;-76
2022/07/01 04:12:56;;;;;;;30.20;17.95;;;;;;;;;;5020241;28;20053;-76
2022/07/01 04:15:22;;;;;;;29.25;17.65;;;;;;;;;;5016816;28;20056;-77
2022/07/01 04:17:48;;;;;;;30.23;17.80;;;;;;;;;;5028550;28;20037;-77
2022/07/01 04:20:14;;;;;;;30.45;18.17;;;;;;;;;;5026409;28;20486;-77
2022/07/01 04:22:40;;;;;;;35.45;19.92;;;;;;;;;;5016855;28;20431;-77
2022/07/01 04:25:07;;;;;;;33.80;19.95;;;;;;;;;;5012665;28;20049;-77
2022/07/01 04:27:33;;;;;;;36.78;20.38;;;;;;;;;;4996481;28;20104;-77
2022/07/01 04:30:02;;;;;;;38.85;20.70;;;;;;;;;;4996593;28;20038;-76
2022/07/01 04:32:28;;;;;;;33.22;19.15;;;;;;;;;;5013992;28;20029;-76
2022/07/01 04:34:54;;;;;;;36.90;21.02;;;;;;;;;;5014055;28;20048;-76
2022/07/01 04:37:20;;;;;;;36.13;20.17;;;;;;;;;;5013038;28;20948;-76
2022/07/01 04:39:46;;;;;;;38.67;21.48;;;;;;;;;;4980820;28;20442;-76
2022/07/01 04:42:14;;;;;;;39.00;21.63;;;;;;;;;;4963808;28;20073;-76
2022/07/01 04:44:41;;;;;;;39.35;21.90;;;;;;;;;;4996507;28;20038;-75
2022/07/01 04:47:07;;;;;;;33.65;20.58;;;;;;;;;;4996174;28;20056;-76
2022/07/01 04:49:33;;;;;;;40.72;22.13;;;;;;;;;;4996155;28;20107;-76
2022/07/01 04:51:59;;;;;;;38.95;21.35;;;;;;;;;;4996253;28;20511;-69
2022/07/01 04:54:26;;;;;;;36.38;21.63;;;;;;;;;;4996293;28;20172;-70
2022/07/01 04:56:52;;;;;;;37.03;22.38;;;;;;;;;;5013383;28;20124;-75
2022/07/01 04:59:19;;;;;;;38.35;21.60;;;;;;;;;;4995269;28;20042;-76
2022/07/01 05:01:45;;;;;;;37.80;22.33;;;;;;;;;;4996179;28;20136;-76
2022/07/01 05:04:12;;;;;;;37.58;22.30;;;;;;;;;;4995630;28;20037;-69
2022/07/01 05:06:38;;;;;;;37.55;21.65;;;;;;;;;;4995990;28;20042;-69
2022/07/01 05:09:05;;;;;;;41.13;22.40;;;;;;;;;;4996085;28;20490;-68
2022/07/01 05:11:31;;;;;;;34.97;21.67;;;;;;;;;;4995791;28;20046;-69
2022/07/01 05:13:57;;;;;;;34.00;21.35;;;;;;;;;;5013161;28;20045;-76
2022/07/01 05:16:23;;;;;;;34.65;21.73;;;;;;;;;;5013219;28;20092;-75
2022/07/01 05:24:18;;;;;;;30.25;20.05;;;;;;;;;;4995673;28;20037;-70
2022/07/01 05:26:44;;;;;;;37.70;21.85;;;;;;;;;;5013467;28;20053;-76
2022/07/01 05:29:11;;;;;;;38.30;21.80;;;;;;;;;;5015009;28;20129;-76
2022/07/01 05:31:37;;;;;;;34.15;21.17;;;;;;;;;;5032797;28;20041;-71
2022/07/01 05:34:03;;;;;;;37.95;22.42;;;;;;;;;;5014533;28;20049;-75
2022/07/01 05:36:29;;;;;;;34.40;21.85;;;;;;;;;;5014782;28;20048;-76
2022/07/01 05:38:55;;;;;;;35.45;22.00;;;;;;;;;;5014791;28;20115;-69
2022/07/01 05:41:21;;;;;;;32.85;20.20;;;;;;;;;;5033066;28;20429;-69
2022/07/01 05:43:47;;;;;;;32.28;20.88;;;;;;;;;;5014939;28;20048;-68
2022/07/01 05:46:13;;;;;;;35.47;20.98;;;;;;;;;;5014743;28;20478;-69
2022/07/01 05:48:39;;;;;;;34.97;20.77;;;;;;;;;;5032570;28;20104;-69
2022/07/01 05:51:05;;;;;;;36.75;20.95;;;;;;;;;;5014433;28;20516;-75
2022/07/01 05:53:31;;;;;;;32.83;19.98;;;;;;;;;;5015143;28;20449;-76
2022/07/01 05:55:57;;;;;;;34.15;21.52;;;;;;;;;;5014597;28;20045;-70
2022/07/01 05:58:24;;;;;;;33.00;20.80;;;;;;;;;;5032617;28;20084;-70
2022/07/01 06:00:50;;;;;;;33.83;21.05;;;;;;;;;;5014939;28;20100;-70
2022/07/01 06:03:16;;;;;;;30.52;20.00;;;;;;;;;;5014094;28;20080;-76
2022/07/01 06:05:43;;;;;;;31.88;19.17;;;;;;;;;;5014422;28;20040;-76
2022/07/01 06:08:09;;;;;;;30.35;20.20;;;;;;;;;;5014143;28;20041;-69
2022/07/01 06:10:35;;;;;;;30.38;19.55;;;;;;;;;;5014221;28;20042;-75
2022/07/01 06:13:02;;;;;;;31.55;19.17;;;;;;;;;;5013850;28;20046;-70
2022/07/01 06:15:28;;;;;;;29.50;18.00;;;;;;;;;;5014758;28;20560;-75
2022/07/01 06:17:54;;;;;;;30.20;18.58;;;;;;;;;;5031991;28;20041;-70
2022/07/01 06:20:20;;;;;;;29.90;18.83;;;;;;;;;;5031686;28;20503;-70
2022/07/01 06:22:46;;;;;;;28.52;18.13;;;;;;;;;;5014371;28;20067;-69
2022/07/01 06:25:12;;;;;;;30.65;18.10;;;;;;;;;;5025923;28;20054;-70
2022/07/01 06:27:42;;;;;;;27.15;17.35;;;;;;;;;;4994712;28;20046;-75
2022/07/01 06:30:09;;;;;;;26.15;17.67;;;;;;;;;;4994718;28;20427;-75
2022/07/01 06:32:35;;;;;;;24.15;17.17;;;;;;;;;;5012091;28;20053;-75
2022/07/01 06:35:01;;;;;;;24.48;15.65;;;;;;;;;;5011706;28;20391;-71
2022/07/01 06:37:27;;;;;;;26.27;16.85;;;;;;;;;;4994452;28;20038;-70
2022/07/01 06:39:54;;;;;;;27.15;16.63;;;;;;;;;;4994984;28;20522;-75
2022/07/01 06:42:21;;;;;;;25.48;16.13;;;;;;;;;;4977999;28;20104;-75
2022/07/01 06:44:47;;;;;;;25.80;16.52;;;;;;;;;;4994873;28;20042;-70
2022/07/01 06:47:14;;;;;;;25.75;16.60;;;;;;;;;;4978221;28;20517;-75
2022/07/01 06:49:40;;;;;;;23.08;16.73;;;;;;;;;;4978559;28;20117;-72
2022/07/01 06:52:07;;;;;;;24.67;15.80;;;;;;;;;;4993999;28;20053;-71
2022/07/01 06:54:37;;;;;;;25.48;15.98;;;;;;;;;;5010825;28;20042;-70
2022/07/01 06:57:03;;;;;;;25.65;16.60;;;;;;;;;;4994710;28;20046;-70
2022/07/01 06:59:29;;;;;;;23.83;16.88;;;;;;;;;;4994442;28;20124;-71
2022/07/01 07:01:55;;;;;;;20.45;15.40;;;;;;;;;;5012036;28;20124;-75
2022/07/01 07:04:22;;;;;;;23.27;16.40;;;;;;;;;;4977903;28;20038;-75
2022/07/01 07:06:48;;;;;;;26.15;16.25;;;;;;;;;;4994324;28;20049;-69
2022/07/01 07:09:14;;;;;;;22.13;16.33;;;;;;;;;;4994044;28;20450;-76
2022/07/01 07:11:40;;;;;;;24.52;16.50;;;;;;;;;;4989128;28;20042;-76
2022/07/01 07:14:06;;;;;;;23.65;16.00;;;;;;;;;;5002144;28;20046;-75
2022/07/01 07:16:32;;;;;;;21.02;15.50;;;;;;;;;;4994604;28;20033;-76
2022/07/01 07:18:58;;;;;;;26.25;17.48;;;;;;;;;;4994452;28;20113;-76
2022/07/01 07:21:24;;;;;;;24.23;16.52;;;;;;;;;;4994218;28;20561;-76
2022/07/01 07:23:50;;;;;;;24.55;16.23;;;;;;;;;;4997914;28;20049;-76
2022/07/01 07:26:16;;;;;;;23.42;16.77;;;;;;;;;;4997936;28;20050;-76
2022/07/01 07:28:42;;;;;;;20.55;16.58;;;;;;;;;;4997909;28;20054;-76
2022/07/01 07:31:09;;;;;;;21.98;15.48;;;;;;;;;;5015380;28;20622;-76
2022/07/01 07:33:35;;;;;;;22.38;16.15;;;;;;;;;;5003908;28;20389;-76
2022/07/01 07:36:01;;;;;;;21.23;15.35;;;;;;;;;;5015657;28;20044;-76
2022/07/01 07:38:27;;;;;;;20.92;15.18;;;;;;;;;;4997558;28;20038;-77
2022/07/01 07:40:53;;;;;;;22.38;14.55;;;;;;;;;;4997846;28;20054;-76
2022/07/01 07:43:19;;;;;;;17.35;13.90;;;;;;;;;;5015377;28;20044;-77
2022/07/01 07:45:45;;;;;;;20.05;14.00;;;;;;;;;;4997622;28;20557;-76
2022/07/01 07:48:11;;;;;;;18.48;13.73;;;;;;;;;;5014932;28;20084;-76
2022/07/01 07:50:37;;;;;;;16.58;13.15;;;;;;;;;;4997560;28;20045;-78
2022/07/01 07:53:03;;;;;;;15.48;13.13;;;;;;;;;;4997599;28;20057;-77
2022/07/01 07:55:29;;;;;;;17.92;12.88;;;;;;;;;;4997367;28;20041;-78
2022/07/01 07:57:57;;;;;;;16.48;13.00;;;;;;;;;;4997693;28;20088;-70
2022/07/01 08:00:23;;;;;;;21.75;13.90;;;;;;;;;;4993938;28;20057;-71
2022/07/01 08:02:49;;;;;;;17.83;13.02;;;;;;;;;;5014713;28;20026;-70
2022/07/01 08:05:15;;;;;;;17.88;12.23;;;;;;;;;;5014524;28;20034;-70
2022/07/01 08:07:42;;;;;;;17.30;12.98;;;;;;;;;;4997085;28;20049;-70
2022/07/01 08:10:10;;;;;;;16.08;12.45;;;;;;;;;;5014084;28;20372;-71
2022/07/01 08:12:36;;;;;;;17.63;12.00;;;;;;;;;;4997063;28;20109;-71
2022/07/01 08:15:03;;;;;;;18.05;12.20;;;;;;;;;;5013413;28;20077;-70
2022/07/01 08:17:29;;;;;;;15.35;11.48;;;;;;;;;;4997060;28;20104;-71
2022/07/01 08:19:55;;;;;;;16.08;11.40;;;;;;;;;;4997260;28;20064;-76
2022/07/01 08:22:21;;;;;;;18.52;11.75;;;;;;;;;;5014557;28;20549;-77
2022/07/01 08:24:48;;;;;;;17.00;11.82;;;;;;;;;;4995493;28;20037;-71
2022/07/01 08:27:14;;;;;;;16.20;11.48;;;;;;;;;;4992338;28;20049;-77
2022/07/01 08:29:40;;;;;;;16.88;11.27;;;;;;;;;;5014491;28;20042;-71
2022/07/01 08:32:07;;;;;;;15.02;10.77;;;;;;;;;;5014370;28;20041;-76
2022/07/01 08:34:33;;;;;;;12.57;10.02;;;;;;;;;;5013789;28;20486;-77
2022/07/01 08:36:59;;;;;;;12.85;10.13;;;;;;;;;;4996956;28;20049;-78
2022/07/01 08:39:25;;;;;;;13.35;9.98;;;;;;;;;;5014069;28;20040;-77
2022/07/01 08:41:51;;;;;;;11.80;8.98;;;;;;;;;;5013264;28;20057;-77
2022/07/01 08:44:17;;;;;;;12.45;8.02;;;;;;;;;;5012669;28;20560;-71
2022/07/01 08:46:43;;;;;;;9.82;7.40;;;;;;;;;;4996926;28;20399;-71
2022/07/01 08:49:09;;;;;;;11.50;7.53;;;;;;;;;;5012710;28;20053;-70
2022/07/01 08:51:35;;;;;;;10.88;8.25;;;;;;;;;;5012752;28;20494;-78
2022/07/01 08:54:01;;;;;;;11.13;8.10;;;;;;;;;;4980209;28;20053;-76
2022/07/01 08:56:45;;;;;;;12.32;8.30;;;;;;;;;;5013784;28;20042;-77
2022/07/01 08:59:24;;;;;;;12.77;7.78;;;;;;;;;;5012771;28;20042;-77
2022/07/01 09:01:58;;;;;;;9.35;7.32;;;;;;;;;;5012999;28;20165;-77
2022/07/01 09:04:24;;;;;;;9.27;7.07;;;;;;;;;;5012764;28;20394;-78
2022/07/01 09:06:50;;;;;;;9.57;6.25;;;;;;;;;;5012468;28;20046;-78
2022/07/01 09:09:22;;;;;;;10.00;5.50;;;;;;;;;;5012964;28;20046;-77
2022/07/01 09:11:55;;;;;;;9.75;5.50;;;;;;;;;;5000661;28;20048;-77
2022/07/01 09:14:23;;;;;;;9.75;5.97;;;;;;;;;;5012889;28;20081;-77
2022/07/01 09:16:54;;;;;;;10.15;5.72;;;;;;;;;;4995995;28;20057;-77
2022/07/01 09:19:21;;;;;;;8.85;5.25;;;;;;;;;;5012835;28;20042;-77
2022/07/01 09:21:49;;;;;;;8.57;5.57;;;;;;;;;;5012230;28;20049;-71
2022/07/01 09:24:29;;;;;;;10.18;5.97;;;;;;;;;;5012446;28;20081;-77
2022/07/01 09:27:06;;;;;;;9.95;5.63;;;;;;;;;;5013101;28;20053;-71
2022/07/01 09:29:37;;;;;;;9.40;5.13;;;;;;;;;;4995889;28;20042;-77
2022/07/01 09:32:05;;;;;;;8.18;4.53;;;;;;;;;;4995795;28;20072;-70
2022/07/01 09:34:40;;;;;;;6.90;3.83;;;;;;;;;;4995679;28;20096;-70
2022/07/01 09:37:06;;;;;;;6.95;3.80;;;;;;;;;;4995355;28;20045;-78
2022/07/01 09:39:45;;;;;;;6.78;4.00;;;;;;;;;;4995716;28;20492;-70
2022/07/01 09:42:11;;;;;;;8.85;3.90;;;;;;;;;;4995463;28;20046;-71
2022/07/01 09:44:53;;;;;;;6.97;3.90;;;;;;;;;;5012344;28;20042;-71
2022/07/01 09:47:22;;;;;;;8.27;3.80;;;;;;;;;;4995120;28;20042;-71
2022/07/01 09:49:48;;;;;;;6.40;3.60;;;;;;;;;;5012970;28;20097;-77
2022/07/01 09:52:14;;;;;;;7.25;3.50;;;;;;;;;;4995752;28;20439;-76
2022/07/01 09:54:41;;;;;;;8.93;3.35;;;;;;;;;;5012406;28;20045;-71
2022/07/01 09:57:07;;;;;;;8.18;3.05;;;;;;;;;;4995216;28;20046;-77
2022/07/01 09:59:33;;;;;;;6.60;2.78;;;;;;;;;;4995282;28;20034;-71
2022/07/01 10:02:00;;;;;;;6.15;2.60;;;;;;;;;;5011777;28;20048;-70
2022/07/01 10:04:27;;;;;;;5.25;1.90;;;;;;;;;;5011609;28;20519;-72
2022/07/01 10:07:10;;;;;;;7.03;2.63;;;;;;;;;;4995215;28;20046;-70
2022/07/01 10:09:54;;;;;;;7.00;2.40;;;;;;;;;;4995163;28;20387;-71
2022/07/01 10:12:23;;;;;;;6.30;2.72;;;;;;;;;;5013037;28;20121;-77
2022/07/01 10:14:50;;;;;;;4.35;2.00;;;;;;;;;;4980010;28;20041;-77
2022/07/01 10:17:35;;;;;;;6.38;2.53;;;;;;;;;;5013393;28;20042;-78
2022/07/01 10:20:15;;;;;;;5.57;2.47;;;;;;;;;;4995329;28;20089;-77
2022/07/01 10:22:41;;;;;;;5.32;2.13;;;;;;;;;;4995029;28;20449;-74
2022/07/01 10:25:26;;;;;;;7.38;2.35;;;;;;;;;;4995190;28;20454;-78
2022/07/01 10:28:11;;;;;;;4.38;2.22;;;;;;;;;;4995083;28;20057;-77
2022/07/01 10:30:48;;;;;;;3.88;1.67;;;;;;;;;;4994711;28;20117;-71
2022/07/01 10:33:27;;;;;;;5.57;1.58;;;;;;;;;;5008311;28;20117;-71
2022/07/01 10:35:53;;;;;;;4.28;1.50;;;;;;;;;;4993444;28;20048;-70
2022/07/01 10:38:19;;;;;;;4.88;1.60;;;;;;;;;;4995069;28;20050;-77
2022/07/01 10:40:46;;;;;;;3.35;1.10;;;;;;;;;;4994824;28;20455;-77
2022/07/01 10:43:15;;;;;;;3.92;0.90;;;;;;;;;;4995437;28;20038;-78
2022/07/01 10:45:42;;;;;;;4.75;1.33;;;;;;;;;;5012146;28;20029;-78
2022/07/01 10:48:21;;;;;;;4.22;0.98;;;;;;;;;;4979473;28;20042;-76
2022/07/01 10:50:48;;;;;;;6.82;1.20;;;;;;;;;;4994593;28;20041;-76
2022/07/01 10:53:14;;;;;;;1.88;0.73;;;;;;;;;;4978758;28;20049;-78
2022/07/01 10:55:48;;;;;;;3.17;0.88;;;;;;;;;;5012375;28;20046;-78
2022/07/01 10:58:17;;;;;;;4.28;0.68;;;;;;;;;;4985858;28;20061;-76
2022/07/01 11:00:44;;;;;;;2.60;0.60;;;;;;;;;;5016037;28;20069;-76
2022/07/01 11:03:11;;;;;;;3.67;0.80;;;;;;;;;;4998860;28;20076;-76
2022/07/01 11:05:37;;;;;;;3.58;1.02;;;;;;;;;;4998668;28;20459;-77
2022/07/01 11:08:05;;;;;;;5.60;0.90;;;;;;;;;;4982092;28;20042;-77
2022/07/01 11:10:31;;;;;;;4.07;0.80;;;;;;;;;;4998766;28;20470;-78
2022/07/01 11:12:57;;;;;;;3.50;0.63;;;;;;;;;;4998086;28;20078;-77
2022/07/01 11:15:23;;;;;;;2.08;0.70;;;;;;;;;;4982317;28;20125;-77
2022/07/01 11:17:50;;;;;;;2.65;0.70;;;;;;;;;;4997948;28;20452;-76
2022/07/01 11:20:16;;;;;;;3.03;0.75;;;;;;;;;;4998473;28;20526;-71
2022/07/01 11:22:42;;;;;;;2.47;0.70;;;;;;;;;;4998970;28;20485;-78
2022/07/01 11:25:13;;;;;;;1.58;0.50;;;;;;;;;;5029057;28;20053;-75
2022/07/01 11:27:40;;;;;;;3.50;0.70;;;;;;;;;;4998250;28;20124;-70
2022/07/01 11:30:09;;;;;;;4.28;0.70;;;;;;;;;;5014658;28;20109;-71
2022/07/01 11:32:36;;;;;;;2.85;0.60;;;;;;;;;;4997726;28;20060;-70
2022/07/01 11:35:03;;;;;;;1.80;0.60;;;;;;;;;;5004270;28;20045;-71
2022/07/01 11:40:14;;;;;;;;;;;;;;;;;;5015077;28;20459;-71
2022/07/01 11:42:41;;;;;;;2.88;0.80;;;;;;;;;;5013835;28;19956;-78
2022/07/01 11:45:07;;;;;;;2.80;0.80;;;;;;;;;;4998366;28;20432;-78
2022/07/01 11:47:34;;;;;;;6.07;0.80;;;;;;;;;;4998177;28;20041;-77
2022/07/01 11:50:01;;;;;;;4.03;0.90;;;;;;;;;;4998248;28;20454;-78
2022/07/01 11:52:27;;;;;;;3.28;0.77;;;;;;;;;;4997651;28;20080;-77
2022/07/01 11:54:54;;;;;;;3.10;0.60;;;;;;;;;;4997944;28;20061;-78
2022/07/01 11:57:24;;;;;;;3.97;0.70;;;;;;;;;;4997563;28;20082;-77
2022/07/01 11:59:54;;;;;;;3.17;0.60;;;;;;;;;;5015863;28;20391;-77
2022/07/01 12:02:22;;;;;;;2.88;0.50;;;;;;;;;;5015628;28;20044;-77
2022/07/01 12:04:49;;;;;;;2.33;0.60;;;;;;;;;;4997125;28;20049;-77
2022/07/01 12:07:16;;;;;;;2.55;0.70;;;;;;;;;;4997246;28;20053;-78
2022/07/01 12:09:42;;;;;;;4.22;0.77;;;;;;;;;;5014880;28;20113;-77
2022/07/01 12:12:18;;;;;;;3.20;0.70;;;;;;;;;;5006792;28;20046;-78
2022/07/01 12:14:55;;;;;;;2.78;0.70;;;;;;;;;;5000655;28;20053;-78
2022/07/01 12:17:21;;;;;;;3.38;0.70;;;;;;;;;;5014960;28;20041;-69
2022/07/01 12:19:48;;;;;;;2.83;0.80;;;;;;;;;;4996674;28;20112;-71
2022/07/01 12:22:18;;;;;;;3.22;1.05;;;;;;;;;;4997060;28;20093;-78
2022/07/01 12:24:44;;;;;;;3.72;0.98;;;;;;;;;;5014989;28;20092;-78
2022/07/01 12:27:10;;;;;;;4.75;0.98;;;;;;;;;;4997598;28;20050;-77
2022/07/01 12:29:42;;;;;;;6.43;1.17;;;;;;;;;;4997639;28;20097;-78
2022/07/01 12:32:10;;;;;;;2.58;0.90;;;;;;;;;;4997409;28;20089;-79
2022/07/01 12:34:45;;;;;;;7.15;1.55;;;;;;;;;;4996874;28;20048;-69
2022/07/01 12:37:13;;;;;;;3.42;0.90;;;;;;;;;;4996802;28;20409;-70
2022/07/01 12:39:59;;;;;;;4.38;1.13;;;;;;;;;;5013331;28;20042;-70
2022/07/01 12:42:38;;;;;;;5.18;1.30;;;;;;;;;;4996804;28;20097;-70
2022/07/01 12:45:06;;;;;;;4.40;0.98;;;;;;;;;;5013864;28;20406;-69
2022/07/01 12:47:33;;;;;;;2.80;0.80;;;;;;;;;;4980397;28;20429;-69
2022/07/01 12:50:09;;;;;;;4.57;1.00;;;;;;;;;;4996542;28;20124;-70
2022/07/01 12:52:35;;;;;;;4.43;1.05;;;;;;;;;;4996349;28;20052;-70
2022/07/01 12:55:01;;;;;;;3.28;1.10;;;;;;;;;;5012602;28;20072;-75
2022/07/01 12:57:33;;;;;;;4.07;1.10;;;;;;;;;;4996407;28;20041;-77
2022/07/01 13:00:32;;;;;;;4.90;1.10;;;;;;;;;;4996933;28;20562;-72
2022/07/01 13:02:59;;;;;;;5.43;1.00;;;;;;;;;;4995684;28;20129;-70
2022/07/01 13:05:26;;;;;;;4.15;1.10;;;;;;;;;;5014167;28;20046;-77
2022/07/01 13:07:52;;;;;;;8.07;1.02;;;;;;;;;;4996138;28;20041;-78
2022/07/01 13:10:18;;;;;;;3.70;1.10;;;;;;;;;;5013597;28;20046;-75
2022/07/01 13:12:45;;;;;;;4.45;1.13;;;;;;;;;;4997091;28;20427;-78
2022/07/01 13:15:12;;;;;;;3.13;1.00;;;;;;;;;;4995898;28;20093;-78
2022/07/01 13:17:38;;;;;;;5.05;1.30;;;;;;;;;;4992683;28;20046;-71
2022/07/01 13:20:07;;;;;;;4.38;0.98;;;;;;;;;;4990045;28;20044;-78
2022/07/01 13:22:33;;;;;;;4.63;1.10;;;;;;;;;;4996512;28;20042;-74
2022/07/01 13:25:00;;;;;;;3.75;1.27;;;;;;;;;;4995939;28;20062;-78
2022/07/01 13:27:26;;;;;;;5.03;1.10;;;;;;;;;;5013590;28;20046;-78
2022/07/01 13:29:52;;;;;;;3.78;1.00;;;;;;;;;;5013380;28;20048;-78
2022/07/01 13:32:18;;;;;;;5.72;1.20;;;;;;;;;;5012335;28;20033;-79
2022/07/01 13:34:44;;;;;;;5.40;1.25;;;;;;;;;;4996016;28;20081;-77
2022/07/01 13:37:10;;;;;;;3.28;0.98;;;;;;;;;;4995690;28;20050;-69
2022/07/01 13:39:36;;;;;;;4.97;1.40;;;;;;;;;;5012829;28;20034;-70
2022/07/01 13:42:03;;;;;;;4.53;1.35;;;;;;;;;;4979562;28;20096;-77
2022/07/01 13:44:29;;;;;;;4.47;1.05;;;;;;;;;;5013510;28;20100;-78
2022/07/01 13:46:55;;;;;;;4.53;1.17;;;;;;;;;;4995979;28;20052;-79
2022/07/01 13:49:21;;;;;;;6.93;1.13;;;;;;;;;;5009730;28;20037;-79
2022/07/01 13:51:47;;;;;;;3.40;1.10;;;;;;;;;;5013437;28;20476;-78
2022/07/01 13:54:13;;;;;;;3.42;1.10;;;;;;;;;;4995287;28;20185;-70
2022/07/01 13:56:40;;;;;;;3.60;1.08;;;;;;;;;;5013001;28;20120;-70
2022/07/01 13:59:06;;;;;;;7.15;1.52;;;;;;;;;;4994956;28;20042;-71
2022/07/01 14:01:33;;;;;;;5.53;1.40;;;;;;;;;;5013227;28;20056;-76
2022/07/01 14:04:02;;;;;;;5.38;1.30;;;;;;;;;;4995073;28;20068;-70
2022/07/01 14:06:28;;;;;;;4.90;1.30;;;;;;;;;;4979305;28;20037;-70
2022/07/01 14:08:55;;;;;;;4.97;1.02;;;;;;;;;;4994602;28;20042;-71
2022/07/01 14:11:21;;;;;;;6.82;1.50;;;;;;;;;;4978901;28;20100;-70
2022/07/01 14:13:47;;;;;;;5.43;1.45;;;;;;;;;;4995045;28;20121;-69
2022/07/01 14:16:14;;;;;;;5.35;1.20;;;;;;;;;;4994356;28;20532;-69
2022/07/01 14:18:40;;;;;;;3.63;1.10;;;;;;;;;;5002076;28;20041;-71
2022/07/01 14:21:06;;;;;;;5.90;1.10;;;;;;;;;;4985106;28;20093;-77
2022/07/01 14:23:33;;;;;;;5.35;1.23;;;;;;;;;;5012590;28;20494;-74
2022/07/01 14:25:59;;;;;;;7.20;1.35;;;;;;;;;;4991407;28;20062;-79
2022/07/01 14:28:26;;;;;;;5.88;1.15;;;;;;;;;;5006207;28;20061;-70
2022/07/01 14:30:54;;;;;;;3.13;1.23;;;;;;;;;;4994487;28;20395;-70
2022/07/01 14:33:20;;;;;;;4.57;1.30;;;;;;;;;;4995391;28;20050;-71
2022/07/01 14:35:47;;;;;;;4.35;1.20;;;;;;;;;;5012338;28;20513;-78
2022/07/01 14:38:14;;;;;;;4.88;1.10;;;;;;;;;;4979137;28;20045;-78
2022/07/01 14:40:41;;;;;;;3.80;1.00;;;;;;;;;;5013115;28;20041;-76
2022/07/01 14:43:07;;;;;;;5.40;1.25;;;;;;;;;;4995137;28;20507;-76
2022/07/01 14:45:33;;;;;;;6.07;1.30;;;;;;;;;;4994817;28;20045;-77